sensor_id;sensor_type;location;lat;lon;timestamp;pressure;altitude;pressure_sealevel;temperature;humidity
72961;BME280;61141;46.204;19.774;2023-05-23T00:01:55;100146.34;;;15.33;95.44
72961;BME280;61141;46.204;19.774;2023-05-23T00:05:00;100153.38;;;15.41;95.27
72961;BME280;61141;46.204;19.774;2023-05-23T00:08:05;100143.53;;;15.40;95.37
72961;BME280;61141;46.204;19.774;2023-05-23T00:11:08;100143.16;;;15.38;96.28
72961;BME280;61141;46.204;19.774;2023-05-23T00:14:11;100153.44;;;15.34;96.75
72961;BME280;61141;46.204;19.774;2023-05-23T00:17:15;100144.03;;;15.28;96.50
72961;BME280;61141;46.204;19.774;2023-05-23T00:20:19;100146.44;;;15.19;96.46
72961;BME280;61141;46.204;19.774;2023-05-23T00:23:22;100147.28;;;15.16;96.71
72961;BME280;61141;46.204;19.774;2023-05-23T00:26:27;100141.78;;;15.09;97.25
72961;BME280;61141;46.204;19.774;2023-05-23T00:29:31;100138.28;;;15.05;97.68
72961;BME280;61141;46.204;19.774;2023-05-23T00:32:34;100128.87;;;14.92;97.36
72961;BME280;61141;46.204;19.774;2023-05-23T00:35:37;100139.50;;;14.97;97.45
72961;BME280;61141;46.204;19.774;2023-05-23T00:38:40;100136.41;;;14.88;98.14
72961;BME280;61141;46.204;19.774;2023-05-23T00:41:45;100139.19;;;14.81;98.56
72961;BME280;61141;46.204;19.774;2023-05-23T00:44:51;100144.69;;;14.84;98.24
72961;BME280;61141;46.204;19.774;2023-05-23T00:47:54;100144.31;;;14.86;97.69
72961;BME280;61141;46.204;19.774;2023-05-23T00:50:57;100141.56;;;14.82;97.37
72961;BME280;61141;46.204;19.774;2023-05-23T00:54:00;100142.37;;;14.83;97.45
72961;BME280;61141;46.204;19.774;2023-05-23T00:57:03;100128.16;;;14.81;97.44
72961;BME280;61141;46.204;19.774;2023-05-23T01:00:07;100139.97;;;14.85;97.05
72961;BME280;61141;46.204;19.774;2023-05-23T01:03:13;100140.78;;;14.85;97.13
72961;BME280;61141;46.204;19.774;2023-05-23T01:06:20;100139.97;;;14.85;97.11
72961;BME280;61141;46.204;19.774;2023-05-23T01:09:24;100134.91;;;14.76;97.17
72961;BME280;61141;46.204;19.774;2023-05-23T01:12:36;100134.16;;;14.68;97.10
72961;BME280;61141;46.204;19.774;2023-05-23T01:19:17;100143.62;;;14.64;96.49
72961;BME280;61141;46.204;19.774;2023-05-23T01:29:01;100133.81;;;14.56;97.53
72961;BME280;61141;46.204;19.774;2023-05-23T01:32:10;100148.44;;;14.49;97.71
72961;BME280;61141;46.204;19.774;2023-05-23T01:35:18;100142.88;;;14.53;98.20
72961;BME280;61141;46.204;19.774;2023-05-23T01:38:24;100143.28;;;14.55;98.30
72961;BME280;61141;46.204;19.774;2023-05-23T01:41:26;100139.38;;;14.52;98.28
72961;BME280;61141;46.204;19.774;2023-05-23T01:44:31;100142.13;;;14.52;97.81
72961;BME280;61141;46.204;19.774;2023-05-23T01:47:34;100141.72;;;14.50;98.14
72961;BME280;61141;46.204;19.774;2023-05-23T01:50:38;100131.94;;;14.35;98.30
72961;BME280;61141;46.204;19.774;2023-05-23T01:53:42;100139.75;;;14.51;98.09
72961;BME280;61141;46.204;19.774;2023-05-23T01:56:46;100129.13;;;14.49;98.01
72961;BME280;61141;46.204;19.774;2023-05-23T01:59:49;100124.84;;;14.41;97.69
72961;BME280;61141;46.204;19.774;2023-05-23T02:02:52;100129.53;;;14.48;97.59
72961;BME280;61141;46.204;19.774;2023-05-23T02:05:56;100126.75;;;14.48;97.71
72961;BME280;61141;46.204;19.774;2023-05-23T02:08:58;100126.78;;;14.44;97.47
72961;BME280;61141;46.204;19.774;2023-05-23T02:12:02;100124.38;;;14.50;97.60
72961;BME280;61141;46.204;19.774;2023-05-23T02:15:05;100119.72;;;14.43;98.37
72961;BME280;61141;46.204;19.774;2023-05-23T02:18:10;100119.75;;;14.26;98.28
72961;BME280;61141;46.204;19.774;2023-05-23T02:21:14;100116.69;;;14.02;99.05
72961;BME280;61141;46.204;19.774;2023-05-23T02:24:17;100118.66;;;14.02;99.76
72961;BME280;61141;46.204;19.774;2023-05-23T02:27:20;100119.81;;;14.04;99.81
72961;BME280;61141;46.204;19.774;2023-05-23T02:30:22;100117.81;;;14.12;99.71
72961;BME280;61141;46.204;19.774;2023-05-23T02:33:26;100124.53;;;14.11;100.00
72961;BME280;61141;46.204;19.774;2023-05-23T02:36:28;100125.31;;;14.08;99.28
72961;BME280;61141;46.204;19.774;2023-05-23T02:39:33;100125.69;;;14.10;98.58
72961;BME280;61141;46.204;19.774;2023-05-23T02:42:37;100123.34;;;14.08;98.30
72961;BME280;61141;46.204;19.774;2023-05-23T02:45:41;100124.16;;;14.02;98.60
72961;BME280;61141;46.204;19.774;2023-05-23T02:48:44;100126.56;;;13.86;98.75
72961;BME280;61141;46.204;19.774;2023-05-23T02:51:47;100125.00;;;13.78;99.15
72961;BME280;61141;46.204;19.774;2023-05-23T02:54:50;100119.06;;;13.97;99.45
72961;BME280;61141;46.204;19.774;2023-05-23T02:57:53;100124.16;;;14.02;98.85
72961;BME280;61141;46.204;19.774;2023-05-23T03:00:56;100124.53;;;14.04;98.46
72961;BME280;61141;46.204;19.774;2023-05-23T03:03:59;100126.84;;;14.20;97.72
72961;BME280;61141;46.204;19.774;2023-05-23T03:07:02;100125.69;;;14.13;97.09
72961;BME280;61141;46.204;19.774;2023-05-23T03:10:09;100119.41;;;14.06;97.37
72961;BME280;61141;46.204;19.774;2023-05-23T03:13:12;100116.69;;;14.02;97.67
72961;BME280;61141;46.204;19.774;2023-05-23T03:16:15;100117.03;;;14.11;97.54
72961;BME280;61141;46.204;19.774;2023-05-23T03:19:18;100121.75;;;14.18;97.69
72961;BME280;61141;46.204;19.774;2023-05-23T03:22:21;100119.38;;;14.20;97.52
72961;BME280;61141;46.204;19.774;2023-05-23T03:25:24;100116.22;;;14.18;98.08
72961;BME280;61141;46.204;19.774;2023-05-23T03:28:31;100112.31;;;14.16;98.39
72961;BME280;61141;46.204;19.774;2023-05-23T03:31:34;100116.22;;;14.14;98.39
72961;BME280;61141;46.204;19.774;2023-05-23T03:34:37;100120.56;;;14.19;98.37
72961;BME280;61141;46.204;19.774;2023-05-23T03:37:39;100115.81;;;14.30;97.81
72961;BME280;61141;46.204;19.774;2023-05-23T03:40:42;100117.69;;;14.51;97.74
72961;BME280;61141;46.204;19.774;2023-05-23T03:43:45;100127.50;;;14.59;97.48
72961;BME280;61141;46.204;19.774;2023-05-23T03:46:48;100123.56;;;14.63;97.69
72961;BME280;61141;46.204;19.774;2023-05-23T03:49:51;100128.22;;;14.77;97.83
72961;BME280;61141;46.204;19.774;2023-05-23T03:52:54;100120.25;;;14.86;97.79
72961;BME280;61141;46.204;19.774;2023-05-23T03:55:58;100122.63;;;14.88;97.80
72961;BME280;61141;46.204;19.774;2023-05-23T03:59:01;100121.47;;;14.82;98.45
72961;BME280;61141;46.204;19.774;2023-05-23T04:02:04;100125.69;;;15.00;98.67
72961;BME280;61141;46.204;19.774;2023-05-23T04:05:07;100125.66;;;15.07;98.74
72961;BME280;61141;46.204;19.774;2023-05-23T04:08:10;100129.88;;;15.19;98.29
72961;BME280;61141;46.204;19.774;2023-05-23T04:11:13;100129.03;;;15.29;98.08
72961;BME280;61141;46.204;19.774;2023-05-23T04:14:16;100130.66;;;15.23;98.80
72961;BME280;61141;46.204;19.774;2023-05-23T04:17:19;100130.94;;;15.36;98.70
72961;BME280;61141;46.204;19.774;2023-05-23T04:20:22;100133.25;;;15.44;98.68
72961;BME280;61141;46.204;19.774;2023-05-23T04:23:25;100125.00;;;15.41;99.18
72961;BME280;61141;46.204;19.774;2023-05-23T04:26:28;100136.72;;;15.55;98.88
72961;BME280;61141;46.204;19.774;2023-05-23T04:29:33;100135.47;;;15.63;98.91
72961;BME280;61141;46.204;19.774;2023-05-23T04:32:37;100137.75;;;15.72;99.21
72961;BME280;61141;46.204;19.774;2023-05-23T04:35:40;100135.66;;;15.86;98.33
72961;BME280;61141;46.204;19.774;2023-05-23T04:38:45;100135.28;;;15.84;98.35
72961;BME280;61141;46.204;19.774;2023-05-23T04:41:48;100134.31;;;16.02;97.49
72961;BME280;61141;46.204;19.774;2023-05-23T04:44:52;100127.91;;;16.08;98.18
72961;BME280;61141;46.204;19.774;2023-05-23T04:47:56;100139.97;;;16.25;97.30
72961;BME280;61141;46.204;19.774;2023-05-23T04:50:59;100139.38;;;16.40;96.38
72961;BME280;61141;46.204;19.774;2023-05-23T04:54:04;100132.06;;;16.61;95.78
72961;BME280;61141;46.204;19.774;2023-05-23T04:57:07;100131.44;;;16.76;94.99
72961;BME280;61141;46.204;19.774;2023-05-23T05:00:11;100137.16;;;16.92;96.19
72961;BME280;61141;46.204;19.774;2023-05-23T05:03:14;100136.19;;;17.06;95.78
72961;BME280;61141;46.204;19.774;2023-05-23T05:06:18;100133.44;;;17.29;94.09
72961;BME280;61141;46.204;19.774;2023-05-23T05:09:22;100133.22;;;17.43;92.71
72961;BME280;61141;46.204;19.774;2023-05-23T05:12:25;100130.53;;;17.63;91.69
72961;BME280;61141;46.204;19.774;2023-05-23T05:15:28;100128.22;;;17.81;91.38
72961;BME280;61141;46.204;19.774;2023-05-23T05:18:32;100115.37;;;17.91;91.42
72961;BME280;61141;46.204;19.774;2023-05-23T05:21:37;100133.25;;;18.09;90.29
72961;BME280;61141;46.204;19.774;2023-05-23T05:24:40;100131.97;;;18.14;89.85
72961;BME280;61141;46.204;19.774;2023-05-23T05:27:43;100130.69;;;18.18;90.42
72961;BME280;61141;46.204;19.774;2023-05-23T05:30:49;100127.44;;;18.24;90.30
72961;BME280;61141;46.204;19.774;2023-05-23T05:33:55;100128.22;;;18.24;89.93
72961;BME280;61141;46.204;19.774;2023-05-23T05:36:58;100132.97;;;18.24;89.26
72961;BME280;61141;46.204;19.774;2023-05-23T05:40:03;100133.31;;;18.26;89.08
72961;BME280;61141;46.204;19.774;2023-05-23T05:43:09;100131.84;;;18.41;89.15
72961;BME280;61141;46.204;19.774;2023-05-23T05:46:13;100134.31;;;18.15;90.06
72961;BME280;61141;46.204;19.774;2023-05-23T05:49:16;100141.34;;;18.40;89.53
72961;BME280;61141;46.204;19.774;2023-05-23T05:52:19;100140.94;;;18.41;89.04
72961;BME280;61141;46.204;19.774;2023-05-23T05:55:22;100143.62;;;18.45;88.46
72961;BME280;61141;46.204;19.774;2023-05-23T05:58:26;100148.34;;;18.48;88.26
72961;BME280;61141;46.204;19.774;2023-05-23T06:01:29;100152.44;;;18.40;89.01
72961;BME280;61141;46.204;19.774;2023-05-23T06:04:32;100148.50;;;18.60;89.00
72961;BME280;61141;46.204;19.774;2023-05-23T06:07:35;100147.94;;;18.69;88.40
72961;BME280;61141;46.204;19.774;2023-05-23T06:10:40;100150.88;;;18.78;88.23
72961;BME280;61141;46.204;19.774;2023-05-23T06:13:43;100157.78;;;18.90;88.36
72961;BME280;61141;46.204;19.774;2023-05-23T06:16:46;100136.69;;;18.92;87.42
72961;BME280;61141;46.204;19.774;2023-05-23T06:19:49;100145.41;;;19.10;87.11
72961;BME280;61141;46.204;19.774;2023-05-23T06:22:53;100160.59;;;19.06;88.05
72961;BME280;61141;46.204;19.774;2023-05-23T06:25:57;100163.00;;;18.68;89.95
72961;BME280;61141;46.204;19.774;2023-05-23T06:29:02;100166.13;;;19.06;88.27
72961;BME280;61141;46.204;19.774;2023-05-23T06:32:05;100159.06;;;18.85;89.29
72961;BME280;61141;46.204;19.774;2023-05-23T06:35:09;100166.13;;;19.06;88.43
72961;BME280;61141;46.204;19.774;2023-05-23T06:38:11;100160.91;;;19.27;88.20
72961;BME280;61141;46.204;19.774;2023-05-23T06:41:16;100160.94;;;19.60;85.95
72961;BME280;61141;46.204;19.774;2023-05-23T06:44:19;100155.53;;;19.85;84.52
72961;BME280;61141;46.204;19.774;2023-05-23T06:47:25;100145.34;;;19.78;84.39
72961;BME280;61141;46.204;19.774;2023-05-23T06:50:28;100152.41;;;20.12;83.68
72961;BME280;61141;46.204;19.774;2023-05-23T06:53:31;100161.12;;;20.42;81.96
72961;BME280;61141;46.204;19.774;2023-05-23T06:56:34;100151.84;;;20.74;80.55
72961;BME280;61141;46.204;19.774;2023-05-23T06:59:38;100158.06;;;21.20;77.29
72961;BME280;61141;46.204;19.774;2023-05-23T07:02:41;100156.91;;;21.30;77.23
72961;BME280;61141;46.204;19.774;2023-05-23T07:05:44;100155.13;;;21.61;76.94
72961;BME280;61141;46.204;19.774;2023-05-23T07:08:49;100158.41;;;21.81;75.64
72961;BME280;61141;46.204;19.774;2023-05-23T07:11:52;100159.03;;;22.10;73.56
72961;BME280;61141;46.204;19.774;2023-05-23T07:14:55;100150.53;;;22.57;73.37
72961;BME280;61141;46.204;19.774;2023-05-23T07:18:00;100155.94;;;22.73;71.27
72961;BME280;61141;46.204;19.774;2023-05-23T07:21:03;100150.84;;;23.12;69.85
72961;BME280;61141;46.204;19.774;2023-05-23T07:24:07;100156.53;;;22.99;69.37
72961;BME280;61141;46.204;19.774;2023-05-23T07:27:09;100161.44;;;22.86;69.37
72961;BME280;61141;46.204;19.774;2023-05-23T07:30:13;100160.78;;;23.13;69.96
72961;BME280;61141;46.204;19.774;2023-05-23T07:33:16;100159.75;;;23.19;66.89
72961;BME280;61141;46.204;19.774;2023-05-23T07:36:19;100160.97;;;23.18;67.00
72961;BME280;61141;46.204;19.774;2023-05-23T07:39:24;100156.03;;;23.31;65.60
72961;BME280;61141;46.204;19.774;2023-05-23T07:42:27;100152.44;;;23.22;67.32
72961;BME280;61141;46.204;19.774;2023-05-23T07:45:30;100151.94;;;23.54;66.72
72961;BME280;61141;46.204;19.774;2023-05-23T07:48:34;100146.97;;;23.49;63.91
72961;BME280;61141;46.204;19.774;2023-05-23T07:51:37;100153.53;;;23.64;64.90
72961;BME280;61141;46.204;19.774;2023-05-23T07:54:40;100151.88;;;23.36;66.11
72961;BME280;61141;46.204;19.774;2023-05-23T07:57:45;100151.22;;;23.81;63.01
72961;BME280;61141;46.204;19.774;2023-05-23T08:00:49;100159.06;;;24.13;61.72
72961;BME280;61141;46.204;19.774;2023-05-23T08:03:55;100162.59;;;24.05;61.70
72961;BME280;61141;46.204;19.774;2023-05-23T08:06:59;100162.50;;;24.35;61.91
72961;BME280;61141;46.204;19.774;2023-05-23T08:10:09;100162.16;;;24.42;62.71
72961;BME280;61141;46.204;19.774;2023-05-23T08:13:13;100156.84;;;24.44;61.95
72961;BME280;61141;46.204;19.774;2023-05-23T08:16:18;100144.59;;;24.33;61.90
72961;BME280;61141;46.204;19.774;2023-05-23T08:19:21;100156.41;;;24.55;60.79
72961;BME280;61141;46.204;19.774;2023-05-23T08:22:25;100153.25;;;24.71;58.29
72961;BME280;61141;46.204;19.774;2023-05-23T08:25:28;100153.88;;;24.66;58.30
72961;BME280;61141;46.204;19.774;2023-05-23T08:28:32;100154.19;;;24.68;58.41
72961;BME280;61141;46.204;19.774;2023-05-23T08:31:36;100152.91;;;24.78;58.34
72961;BME280;61141;46.204;19.774;2023-05-23T08:34:40;100148.22;;;24.93;57.38
72961;BME280;61141;46.204;19.774;2023-05-23T08:37:43;100148.81;;;25.06;57.61
72961;BME280;61141;46.204;19.774;2023-05-23T08:40:50;100152.09;;;25.38;56.49
72961;BME280;61141;46.204;19.774;2023-05-23T08:43:56;100144.97;;;25.28;55.19
72961;BME280;61141;46.204;19.774;2023-05-23T08:47:02;100137.16;;;25.64;55.02
72961;BME280;61141;46.204;19.774;2023-05-23T08:50:10;100135.13;;;25.65;52.99
72961;BME280;61141;46.204;19.774;2023-05-23T08:53:15;100132.84;;;25.78;53.32
72961;BME280;61141;46.204;19.774;2023-05-23T08:56:23;100141.97;;;26.11;54.43
72961;BME280;61141;46.204;19.774;2023-05-23T08:59:28;100133.53;;;25.73;52.33
72961;BME280;61141;46.204;19.774;2023-05-23T09:02:32;100135.22;;;25.94;51.93
72961;BME280;61141;46.204;19.774;2023-05-23T09:05:36;100131.66;;;25.70;52.07
72961;BME280;61141;46.204;19.774;2023-05-23T09:08:40;100129.06;;;26.29;51.37
72961;BME280;61141;46.204;19.774;2023-05-23T09:11:44;100127.59;;;26.62;51.29
72961;BME280;61141;46.204;19.774;2023-05-23T09:14:49;100124.72;;;26.86;49.32
72961;BME280;61141;46.204;19.774;2023-05-23T09:17:59;100125.06;;;27.08;51.44
72961;BME280;61141;46.204;19.774;2023-05-23T09:21:05;100125.09;;;26.94;48.00
72961;BME280;61141;46.204;19.774;2023-05-23T09:24:10;100129.28;;;27.33;48.04
72961;BME280;61141;46.204;19.774;2023-05-23T09:27:13;100137.44;;;27.66;48.65
72961;BME280;61141;46.204;19.774;2023-05-23T09:30:16;100122.09;;;26.97;48.27
72961;BME280;61141;46.204;19.774;2023-05-23T09:33:20;100129.59;;;25.94;48.93
72961;BME280;61141;46.204;19.774;2023-05-23T09:36:26;100129.25;;;26.01;51.08
72961;BME280;61141;46.204;19.774;2023-05-23T09:39:38;100110.78;;;25.71;52.09
72961;BME280;61141;46.204;19.774;2023-05-23T09:42:46;100125.81;;;25.59;52.40
72961;BME280;61141;46.204;19.774;2023-05-23T09:45:49;100119.59;;;25.55;53.70
72961;BME280;61141;46.204;19.774;2023-05-23T09:48:52;100121.38;;;25.43;53.22
72961;BME280;61141;46.204;19.774;2023-05-23T09:51:58;100119.97;;;25.48;52.71
72961;BME280;61141;46.204;19.774;2023-05-23T09:55:01;100115.97;;;26.40;51.07
72961;BME280;61141;46.204;19.774;2023-05-23T09:58:04;100123.25;;;26.08;51.69
72961;BME280;61141;46.204;19.774;2023-05-23T10:01:09;100121.94;;;25.56;52.22
72961;BME280;61141;46.204;19.774;2023-05-23T10:04:14;100114.50;;;25.44;52.35
72961;BME280;61141;46.204;19.774;2023-05-23T10:07:19;100117.28;;;25.53;52.25
72961;BME280;61141;46.204;19.774;2023-05-23T10:10:25;100120.91;;;25.36;54.27
72961;BME280;61141;46.204;19.774;2023-05-23T10:13:30;100116.09;;;25.36;54.10
72961;BME280;61141;46.204;19.774;2023-05-23T10:16:52;100109.03;;;25.41;54.01
72961;BME280;61141;46.204;19.774;2023-05-23T10:20:03;100105.25;;;25.29;53.74
72961;BME280;61141;46.204;19.774;2023-05-23T10:23:12;100096.28;;;25.49;52.90
72961;BME280;61141;46.204;19.774;2023-05-23T10:26:16;100105.50;;;25.64;50.29
72961;BME280;61141;46.204;19.774;2023-05-23T10:29:21;100102.22;;;26.42;49.40
72961;BME280;61141;46.204;19.774;2023-05-23T10:32:25;100100.03;;;27.10;46.09
72961;BME280;61141;46.204;19.774;2023-05-23T10:38:37;100082.97;;;27.69;43.94
72961;BME280;61141;46.204;19.774;2023-05-23T10:41:48;100087.59;;;28.12;43.65
72961;BME280;61141;46.204;19.774;2023-05-23T10:45:13;100085.63;;;27.98;44.37
72961;BME280;61141;46.204;19.774;2023-05-23T10:48:40;100078.63;;;28.39;43.85
72961;BME280;61141;46.204;19.774;2023-05-23T10:51:47;100076.44;;;28.49;45.30
72961;BME280;61141;46.204;19.774;2023-05-23T10:54:53;100074.53;;;27.89;45.59
72961;BME280;61141;46.204;19.774;2023-05-23T10:58:15;100075.44;;;28.26;44.81
72961;BME280;61141;46.204;19.774;2023-05-23T11:01:22;100069.81;;;28.26;45.99
72961;BME280;61141;46.204;19.774;2023-05-23T11:04:26;100068.56;;;28.58;45.57
72961;BME280;61141;46.204;19.774;2023-05-23T11:07:32;100062.34;;;28.75;45.43
72961;BME280;61141;46.204;19.774;2023-05-23T11:11:03;100062.47;;;28.91;43.87
72961;BME280;61141;46.204;19.774;2023-05-23T11:14:06;100060.94;;;28.65;44.23
72961;BME280;61141;46.204;19.774;2023-05-23T11:20:15;100054.81;;;28.40;45.21
72961;BME280;61141;46.204;19.774;2023-05-23T11:23:39;100042.75;;;28.09;45.32
72961;BME280;61141;46.204;19.774;2023-05-23T11:26:56;100043.91;;;27.76;45.54
72961;BME280;61141;46.204;19.774;2023-05-23T11:30:13;100038.38;;;27.87;45.95
72961;BME280;61141;46.204;19.774;2023-05-23T11:33:17;100046.69;;;27.96;45.05
72961;BME280;61141;46.204;19.774;2023-05-23T11:36:21;100041.38;;;28.55;44.30
72961;BME280;61141;46.204;19.774;2023-05-23T11:39:24;100028.97;;;28.73;44.01
72961;BME280;61141;46.204;19.774;2023-05-23T11:42:27;100032.47;;;28.06;44.29
72961;BME280;61141;46.204;19.774;2023-05-23T11:45:30;100026.53;;;27.78;45.36
72961;BME280;61141;46.204;19.774;2023-05-23T11:48:34;100019.78;;;27.50;46.65
72961;BME280;61141;46.204;19.774;2023-05-23T11:51:38;100024.59;;;27.09;47.23
72961;BME280;61141;46.204;19.774;2023-05-23T11:54:41;100027.37;;;26.74;47.41
72961;BME280;61141;46.204;19.774;2023-05-23T11:57:45;100018.34;;;26.20;49.05
72961;BME280;61141;46.204;19.774;2023-05-23T12:00:48;100036.03;;;26.26;49.02
72961;BME280;61141;46.204;19.774;2023-05-23T12:03:51;100027.88;;;25.99;49.89
72961;BME280;61141;46.204;19.774;2023-05-23T12:06:54;100033.91;;;25.68;52.34
72961;BME280;61141;46.204;19.774;2023-05-23T12:09:58;100024.38;;;25.28;56.00
72961;BME280;61141;46.204;19.774;2023-05-23T12:13:00;100029.19;;;24.71;57.62
72961;BME280;61141;46.204;19.774;2023-05-23T12:16:04;100033.25;;;24.10;64.31
72961;BME280;61141;46.204;19.774;2023-05-23T12:19:07;100054.22;;;23.60;68.36
72961;BME280;61141;46.204;19.774;2023-05-23T12:22:11;100074.19;;;23.22;77.04
72961;BME280;61141;46.204;19.774;2023-05-23T12:25:13;100074.41;;;22.97;78.89
72961;BME280;61141;46.204;19.774;2023-05-23T12:28:16;100081.63;;;22.54;81.62
72961;BME280;61141;46.204;19.774;2023-05-23T12:31:22;100081.78;;;22.29;84.03
72961;BME280;61141;46.204;19.774;2023-05-23T12:34:25;100082.56;;;21.74;83.27
72961;BME280;61141;46.204;19.774;2023-05-23T12:37:28;100086.81;;;21.31;86.25
72961;BME280;61141;46.204;19.774;2023-05-23T12:40:31;100102.75;;;21.05;88.93
72961;BME280;61141;46.204;19.774;2023-05-23T12:43:47;100095.63;;;20.79;87.13
72961;BME280;61141;46.204;19.774;2023-05-23T12:46:51;100052.38;;;20.37;84.49
72961;BME280;61141;46.204;19.774;2023-05-23T12:49:53;100063.59;;;20.33;86.23
72961;BME280;61141;46.204;19.774;2023-05-23T12:52:57;100068.53;;;20.13;88.57
72961;BME280;61141;46.204;19.774;2023-05-23T12:55:59;100060.78;;;20.21;88.33
72961;BME280;61141;46.204;19.774;2023-05-23T12:59:03;100071.03;;;20.24;88.71
72961;BME280;61141;46.204;19.774;2023-05-23T13:02:05;100056.97;;;20.15;88.95
72961;BME280;61141;46.204;19.774;2023-05-23T13:05:08;100050.06;;;20.19;91.30
72961;BME280;61141;46.204;19.774;2023-05-23T13:08:11;100057.19;;;20.08;93.57
72961;BME280;61141;46.204;19.774;2023-05-23T13:11:14;100050.25;;;20.28;89.69
72961;BME280;61141;46.204;19.774;2023-05-23T13:14:17;100039.00;;;20.32;90.13
72961;BME280;61141;46.204;19.774;2023-05-23T13:17:20;100035.16;;;20.55;90.57
72961;BME280;61141;46.204;19.774;2023-05-23T13:20:23;100015.09;;;20.60;89.72
72961;BME280;61141;46.204;19.774;2023-05-23T13:23:26;100007.31;;;20.67;90.27
72961;BME280;61141;46.204;19.774;2023-05-23T13:26:29;100003.16;;;20.72;90.34
72961;BME280;61141;46.204;19.774;2023-05-23T13:29:32;100001.38;;;20.78;92.75
72961;BME280;61141;46.204;19.774;2023-05-23T13:32:35;100004.28;;;20.74;91.17
72961;BME280;61141;46.204;19.774;2023-05-23T13:35:38;99999.56;;;20.96;90.83
72961;BME280;61141;46.204;19.774;2023-05-23T13:38:42;99997.22;;;21.20;92.03
72961;BME280;61141;46.204;19.774;2023-05-23T13:41:45;99992.31;;;21.24;93.44
72961;BME280;61141;46.204;19.774;2023-05-23T13:44:47;99989.88;;;21.26;93.77
72961;BME280;61141;46.204;19.774;2023-05-23T13:47:51;99988.91;;;21.42;92.32
72961;BME280;61141;46.204;19.774;2023-05-23T13:50:55;99993.41;;;21.83;93.03
72961;BME280;61141;46.204;19.774;2023-05-23T13:53:58;99983.84;;;22.36;89.40
72961;BME280;61141;46.204;19.774;2023-05-23T13:57:00;99979.34;;;22.78;86.68
72961;BME280;61141;46.204;19.774;2023-05-23T14:00:04;99981.59;;;23.02;81.80
72961;BME280;61141;46.204;19.774;2023-05-23T14:03:09;99968.59;;;23.35;87.42
72961;BME280;61141;46.204;19.774;2023-05-23T14:06:12;99965.06;;;23.53;87.00
72961;BME280;61141;46.204;19.774;2023-05-23T14:09:15;99952.28;;;23.70;86.56
72961;BME280;61141;46.204;19.774;2023-05-23T14:12:17;99947.72;;;24.00;84.66
72961;BME280;61141;46.204;19.774;2023-05-23T14:15:20;99949.06;;;24.22;84.04
72961;BME280;61141;46.204;19.774;2023-05-23T14:18:23;99948.59;;;24.24;81.58
72961;BME280;61141;46.204;19.774;2023-05-23T14:21:27;99951.44;;;24.15;83.05
72961;BME280;61141;46.204;19.774;2023-05-23T14:24:30;99946.47;;;24.10;82.02
72961;BME280;61141;46.204;19.774;2023-05-23T14:27:33;99949.41;;;24.06;84.85
72961;BME280;61141;46.204;19.774;2023-05-23T14:30:36;99949.28;;;24.10;80.04
72961;BME280;61141;46.204;19.774;2023-05-23T14:33:39;99950.84;;;23.92;77.62
72961;BME280;61141;46.204;19.774;2023-05-23T14:36:42;99961.44;;;23.79;78.19
72961;BME280;61141;46.204;19.774;2023-05-23T14:39:45;99954.63;;;23.71;79.11
72961;BME280;61141;46.204;19.774;2023-05-23T14:42:48;99957.75;;;23.55;79.31
72961;BME280;61141;46.204;19.774;2023-05-23T14:45:51;99963.31;;;23.37;84.93
72961;BME280;61141;46.204;19.774;2023-05-23T14:48:53;99956.81;;;23.40;85.89
72961;BME280;61141;46.204;19.774;2023-05-23T14:51:56;99947.00;;;23.63;84.77
72961;BME280;61141;46.204;19.774;2023-05-23T14:54:59;99939.94;;;23.94;84.21
72961;BME280;61141;46.204;19.774;2023-05-23T14:58:03;99943.66;;;24.01;82.58
72961;BME280;61141;46.204;19.774;2023-05-23T15:01:07;99937.00;;;23.89;83.07
72961;BME280;61141;46.204;19.774;2023-05-23T15:04:10;99936.75;;;23.51;84.04
72961;BME280;61141;46.204;19.774;2023-05-23T15:07:13;99927.72;;;23.28;85.35
72961;BME280;61141;46.204;19.774;2023-05-23T15:10:19;99926.19;;;23.27;85.12
72961;BME280;61141;46.204;19.774;2023-05-23T15:13:22;99936.44;;;23.21;85.17
72961;BME280;61141;46.204;19.774;2023-05-23T15:16:25;99934.25;;;23.16;87.50
72961;BME280;61141;46.204;19.774;2023-05-23T15:19:28;99934.22;;;22.98;88.85
72961;BME280;61141;46.204;19.774;2023-05-23T15:22:31;99939.66;;;22.84;90.07
72961;BME280;61141;46.204;19.774;2023-05-23T15:25:37;99932.13;;;22.62;93.95
72961;BME280;61141;46.204;19.774;2023-05-23T15:31:54;99934.31;;;22.28;94.58
72961;BME280;61141;46.204;19.774;2023-05-23T15:34:57;99933.97;;;22.16;95.96
72961;BME280;61141;46.204;19.774;2023-05-23T15:38:00;99933.28;;;22.03;96.93
72961;BME280;61141;46.204;19.774;2023-05-23T15:41:03;99933.25;;;21.94;98.04
72961;BME280;61141;46.204;19.774;2023-05-23T15:44:07;99925.47;;;21.89;97.12
72961;BME280;61141;46.204;19.774;2023-05-23T15:47:10;99922.22;;;21.91;97.81
72961;BME280;61141;46.204;19.774;2023-05-23T15:50:13;99918.88;;;21.83;99.36
72961;BME280;61141;46.204;19.774;2023-05-23T15:53:16;99920.50;;;21.72;99.68
72961;BME280;61141;46.204;19.774;2023-05-23T15:56:19;99919.28;;;21.73;99.87
72961;BME280;61141;46.204;19.774;2023-05-23T15:59:21;99908.56;;;21.71;100.00
72961;BME280;61141;46.204;19.774;2023-05-23T16:02:24;99907.66;;;21.74;100.00
72961;BME280;61141;46.204;19.774;2023-05-23T16:05:28;99902.25;;;21.71;100.00
72961;BME280;61141;46.204;19.774;2023-05-23T16:08:30;99895.03;;;21.60;100.00
72961;BME280;61141;46.204;19.774;2023-05-23T16:11:33;99905.09;;;21.58;100.00